sensor_id;sensor_type;location;lat;lon;timestamp;P1;durP1;ratioP1;P2;durP2;ratioP2
5620;SDS011;2832;50.864;12.186;2023-06-22T00:00:32;0.50;;;0.50;;
5620;SDS011;2832;50.864;12.186;2023-06-22T00:03:16;0.50;;;0.50;;
5620;SDS011;2832;50.864;12.186;2023-06-22T00:05:54;0.50;;;0.50;;
5620;SDS011;2832;50.864;12.186;2023-06-22T00:08:29;0.50;;;0.50;;
5620;SDS011;2832;50.864;12.186;2023-06-22T00:11:04;0.50;;;0.50;;
5620;SDS011;2832;50.864;12.186;2023-06-22T00:13:47;0.50;;;0.50;;
5620;SDS011;2832;50.864;12.186;2023-06-22T00:16:23;0.50;;;0.50;;
5620;SDS011;2832;50.864;12.186;2023-06-22T00:19:03;0.50;;;0.50;;
5620;SDS011;2832;50.864;12.186;2023-06-22T00:21:33;0.60;;;0.60;;
5620;SDS011;2832;50.864;12.186;2023-06-22T00:24:07;0.50;;;0.50;;
5620;SDS011;2832;50.864;12.186;2023-06-22T00:26:42;0.57;;;0.57;;
5620;SDS011;2832;50.864;12.186;2023-06-22T00:29:19;0.50;;;0.50;;
5620;SDS011;2832;50.864;12.186;2023-06-22T00:31:49;0.60;;;0.60;;
5620;SDS011;2832;50.864;12.186;2023-06-22T00:34:20;0.55;;;0.55;;
5620;SDS011;2832;50.864;12.186;2023-06-22T00:36:57;0.60;;;0.60;;
5620;SDS011;2832;50.864;12.186;2023-06-22T00:42:35;0.60;;;0.60;;
5620;SDS011;2832;50.864;12.186;2023-06-22T00:45:08;0.50;;;0.50;;
5620;SDS011;2832;50.864;12.186;2023-06-22T00:48:00;0.60;;;0.60;;
5620;SDS011;2832;50.864;12.186;2023-06-22T00:50:32;0.60;;;0.60;;
5620;SDS011;2832;50.864;12.186;2023-06-22T00:59:28;0.50;;;0.50;;
5620;SDS011;2832;50.864;12.186;2023-06-22T01:02:07;0.60;;;0.60;;
5620;SDS011;2832;50.864;12.186;2023-06-22T01:04:44;0.50;;;0.50;;
5620;SDS011;2832;50.864;12.186;2023-06-22T01:07:25;0.53;;;0.53;;
5620;SDS011;2832;50.864;12.186;2023-06-22T01:10:11;0.60;;;0.60;;
5620;SDS011;2832;50.864;12.186;2023-06-22T01:12:58;0.60;;;0.60;;
5620;SDS011;2832;50.864;12.186;2023-06-22T01:16:06;0.57;;;0.57;;
5620;SDS011;2832;50.864;12.186;2023-06-22T01:18:51;0.50;;;0.50;;
5620;SDS011;2832;50.864;12.186;2023-06-22T01:21:28;0.50;;;0.50;;
5620;SDS011;2832;50.864;12.186;2023-06-22T01:24:10;0.60;;;0.60;;
5620;SDS011;2832;50.864;12.186;2023-06-22T01:27:09;0.60;;;0.60;;
5620;SDS011;2832;50.864;12.186;2023-06-22T01:30:06;0.60;;;0.60;;
5620;SDS011;2832;50.864;12.186;2023-06-22T01:33:04;0.60;;;0.60;;
5620;SDS011;2832;50.864;12.186;2023-06-22T01:36:18;0.50;;;0.50;;
5620;SDS011;2832;50.864;12.186;2023-06-22T01:39:05;0.60;;;0.60;;
5620;SDS011;2832;50.864;12.186;2023-06-22T01:42:14;0.60;;;0.60;;
5620;SDS011;2832;50.864;12.186;2023-06-22T01:48:20;0.60;;;0.60;;
5620;SDS011;2832;50.864;12.186;2023-06-22T01:51:20;0.60;;;0.60;;
5620;SDS011;2832;50.864;12.186;2023-06-22T01:54:27;0.60;;;0.60;;
5620;SDS011;2832;50.864;12.186;2023-06-22T01:57:20;0.60;;;0.60;;
5620;SDS011;2832;50.864;12.186;2023-06-22T01:59:59;0.60;;;0.60;;
5620;SDS011;2832;50.864;12.186;2023-06-22T02:02:37;0.50;;;0.50;;
5620;SDS011;2832;50.864;12.186;2023-06-22T02:06:05;0.50;;;0.50;;
5620;SDS011;2832;50.864;12.186;2023-06-22T02:08:41;0.60;;;0.60;;
5620;SDS011;2832;50.864;12.186;2023-06-22T02:11:32;0.57;;;0.57;;
5620;SDS011;2832;50.864;12.186;2023-06-22T02:14:14;0.60;;;0.60;;
5620;SDS011;2832;50.864;12.186;2023-06-22T02:33:24;0.60;;;0.60;;
5620;SDS011;2832;50.864;12.186;2023-06-22T02:39:52;0.60;;;0.60;;
5620;SDS011;2832;50.864;12.186;2023-06-22T02:52:32;0.60;;;0.60;;
5620;SDS011;2832;50.864;12.186;2023-06-22T02:59:05;0.60;;;0.60;;
5620;SDS011;2832;50.864;12.186;2023-06-22T03:01:37;0.60;;;0.60;;
5620;SDS011;2832;50.864;12.186;2023-06-22T03:04:59;0.60;;;0.60;;
5620;SDS011;2832;50.864;12.186;2023-06-22T03:11:17;0.60;;;0.60;;
5620;SDS011;2832;50.864;12.186;2023-06-22T03:14:00;0.50;;;0.50;;
5620;SDS011;2832;50.864;12.186;2023-06-22T03:16:42;0.50;;;0.50;;
5620;SDS011;2832;50.864;12.186;2023-06-22T03:22:27;0.60;;;0.60;;
5620;SDS011;2832;50.864;12.186;2023-06-22T03:30:02;0.50;;;0.50;;
5620;SDS011;2832;50.864;12.186;2023-06-22T03:32:53;0.60;;;0.60;;
5620;SDS011;2832;50.864;12.186;2023-06-22T03:35:41;0.60;;;0.60;;
5620;SDS011;2832;50.864;12.186;2023-06-22T03:42:00;0.60;;;0.60;;
5620;SDS011;2832;50.864;12.186;2023-06-22T03:50:59;0.50;;;0.50;;
5620;SDS011;2832;50.864;12.186;2023-06-22T03:53:51;0.50;;;0.50;;
5620;SDS011;2832;50.864;12.186;2023-06-22T03:56:23;0.50;;;0.50;;
5620;SDS011;2832;50.864;12.186;2023-06-22T03:58:55;0.60;;;0.60;;
5620;SDS011;2832;50.864;12.186;2023-06-22T04:01:25;0.60;;;0.60;;
5620;SDS011;2832;50.864;12.186;2023-06-22T04:03:55;0.57;;;0.57;;
5620;SDS011;2832;50.864;12.186;2023-06-22T04:10:46;0.50;;;0.50;;
5620;SDS011;2832;50.864;12.186;2023-06-22T04:13:19;0.50;;;0.50;;
5620;SDS011;2832;50.864;12.186;2023-06-22T04:22:55;0.60;;;0.60;;
5620;SDS011;2832;50.864;12.186;2023-06-22T04:33:14;0.50;;;0.50;;
5620;SDS011;2832;50.864;12.186;2023-06-22T04:35:46;0.60;;;0.60;;
5620;SDS011;2832;50.864;12.186;2023-06-22T04:38:25;0.67;;;0.67;;
5620;SDS011;2832;50.864;12.186;2023-06-22T04:41:04;0.60;;;0.60;;
5620;SDS011;2832;50.864;12.186;2023-06-22T04:43:54;0.60;;;0.60;;
5620;SDS011;2832;50.864;12.186;2023-06-22T04:46:25;0.60;;;0.60;;
5620;SDS011;2832;50.864;12.186;2023-06-22T04:49:01;0.60;;;0.60;;
5620;SDS011;2832;50.864;12.186;2023-06-22T04:56:13;0.60;;;0.60;;
5620;SDS011;2832;50.864;12.186;2023-06-22T04:58:45;0.60;;;0.60;;
5620;SDS011;2832;50.864;12.186;2023-06-22T05:04:09;0.60;;;0.60;;
5620;SDS011;2832;50.864;12.186;2023-06-22T05:06:45;0.60;;;0.60;;
5620;SDS011;2832;50.864;12.186;2023-06-22T05:09:14;0.50;;;0.50;;
5620;SDS011;2832;50.864;12.186;2023-06-22T05:14:41;0.60;;;0.60;;
5620;SDS011;2832;50.864;12.186;2023-06-22T05:17:26;0.60;;;0.60;;
5620;SDS011;2832;50.864;12.186;2023-06-22T05:20:14;0.50;;;0.50;;
5620;SDS011;2832;50.864;12.186;2023-06-22T05:22:54;0.60;;;0.60;;
5620;SDS011;2832;50.864;12.186;2023-06-22T05:32:02;0.60;;;0.60;;
5620;SDS011;2832;50.864;12.186;2023-06-22T05:34:38;0.60;;;0.60;;
5620;SDS011;2832;50.864;12.186;2023-06-22T05:40:50;0.60;;;0.60;;
5620;SDS011;2832;50.864;12.186;2023-06-22T05:43:18;0.60;;;0.60;;
5620;SDS011;2832;50.864;12.186;2023-06-22T05:45:48;0.60;;;0.60;;
5620;SDS011;2832;50.864;12.186;2023-06-22T05:58:07;0.60;;;0.60;;
5620;SDS011;2832;50.864;12.186;2023-06-22T06:00:36;0.50;;;0.50;;
5620;SDS011;2832;50.864;12.186;2023-06-22T06:03:08;0.60;;;0.60;;
5620;SDS011;2832;50.864;12.186;2023-06-22T06:09:29;0.50;;;0.50;;
5620;SDS011;2832;50.864;12.186;2023-06-22T06:12:11;0.60;;;0.60;;
5620;SDS011;2832;50.864;12.186;2023-06-22T06:14:47;0.60;;;0.60;;
5620;SDS011;2832;50.864;12.186;2023-06-22T06:19:52;0.60;;;0.60;;
5620;SDS011;2832;50.864;12.186;2023-06-22T06:22:44;0.60;;;0.60;;
5620;SDS011;2832;50.864;12.186;2023-06-22T06:28:40;0.60;;;0.60;;
5620;SDS011;2832;50.864;12.186;2023-06-22T06:31:20;0.50;;;0.50;;
5620;SDS011;2832;50.864;12.186;2023-06-22T06:33:52;0.50;;;0.50;;
5620;SDS011;2832;50.864;12.186;2023-06-22T06:36:31;0.60;;;0.60;;
5620;SDS011;2832;50.864;12.186;2023-06-22T06:41:58;0.70;;;0.70;;
5620;SDS011;2832;50.864;12.186;2023-06-22T06:45:14;0.70;;;0.70;;
5620;SDS011;2832;50.864;12.186;2023-06-22T06:48:01;0.60;;;0.60;;
5620;SDS011;2832;50.864;12.186;2023-06-22T06:50:33;0.60;;;0.60;;
5620;SDS011;2832;50.864;12.186;2023-06-22T06:53:45;0.60;;;0.60;;
5620;SDS011;2832;50.864;12.186;2023-06-22T06:56:21;0.57;;;0.57;;
5620;SDS011;2832;50.864;12.186;2023-06-22T06:58:52;0.60;;;0.60;;
5620;SDS011;2832;50.864;12.186;2023-06-22T07:01:40;0.60;;;0.60;;
5620;SDS011;2832;50.864;12.186;2023-06-22T07:07:48;0.60;;;0.60;;
5620;SDS011;2832;50.864;12.186;2023-06-22T07:10:20;0.60;;;0.60;;
5620;SDS011;2832;50.864;12.186;2023-06-22T07:12:52;0.60;;;0.60;;
5620;SDS011;2832;50.864;12.186;2023-06-22T07:18:31;0.60;;;0.60;;
5620;SDS011;2832;50.864;12.186;2023-06-22T07:21:08;0.60;;;0.60;;
5620;SDS011;2832;50.864;12.186;2023-06-22T07:23:37;0.70;;;0.70;;
5620;SDS011;2832;50.864;12.186;2023-06-22T07:26:23;0.60;;;0.60;;
5620;SDS011;2832;50.864;12.186;2023-06-22T07:28:55;0.60;;;0.60;;
5620;SDS011;2832;50.864;12.186;2023-06-22T07:31:39;0.60;;;0.60;;
5620;SDS011;2832;50.864;12.186;2023-06-22T07:34:51;0.70;;;0.70;;
5620;SDS011;2832;50.864;12.186;2023-06-22T07:37:26;0.70;;;0.70;;
5620;SDS011;2832;50.864;12.186;2023-06-22T07:40:14;0.60;;;0.60;;
5620;SDS011;2832;50.864;12.186;2023-06-22T07:42:55;0.70;;;0.70;;
5620;SDS011;2832;50.864;12.186;2023-06-22T07:45:28;0.60;;;0.60;;
5620;SDS011;2832;50.864;12.186;2023-06-22T07:48:01;0.60;;;0.60;;
5620;SDS011;2832;50.864;12.186;2023-06-22T07:50:52;0.63;;;0.63;;
5620;SDS011;2832;50.864;12.186;2023-06-22T08:05:46;0.60;;;0.60;;
5620;SDS011;2832;50.864;12.186;2023-06-22T08:25:35;0.60;;;0.60;;
5620;SDS011;2832;50.864;12.186;2023-06-22T08:29:20;0.60;;;0.60;;
5620;SDS011;2832;50.864;12.186;2023-06-22T08:36:11;0.60;;;0.60;;
5620;SDS011;2832;50.864;12.186;2023-06-22T08:49:08;0.70;;;0.70;;
5620;SDS011;2832;50.864;12.186;2023-06-22T09:00:41;0.60;;;0.60;;
5620;SDS011;2832;50.864;12.186;2023-06-22T09:03:13;0.60;;;0.60;;
5620;SDS011;2832;50.864;12.186;2023-06-22T09:05:45;0.60;;;0.60;;
5620;SDS011;2832;50.864;12.186;2023-06-22T09:08:17;0.70;;;0.70;;
5620;SDS011;2832;50.864;12.186;2023-06-22T09:11:22;0.70;;;0.70;;
5620;SDS011;2832;50.864;12.186;2023-06-22T09:14:45;0.60;;;0.60;;
5620;SDS011;2832;50.864;12.186;2023-06-22T09:17:18;0.70;;;0.70;;
5620;SDS011;2832;50.864;12.186;2023-06-22T09:20:00;0.70;;;0.70;;
5620;SDS011;2832;50.864;12.186;2023-06-22T09:22:49;0.60;;;0.60;;
5620;SDS011;2832;50.864;12.186;2023-06-22T09:28:32;0.70;;;0.70;;
5620;SDS011;2832;50.864;12.186;2023-06-22T09:31:27;0.60;;;0.60;;
5620;SDS011;2832;50.864;12.186;2023-06-22T09:34:23;0.60;;;0.60;;
5620;SDS011;2832;50.864;12.186;2023-06-22T09:36:52;0.53;;;0.53;;
5620;SDS011;2832;50.864;12.186;2023-06-22T09:39:22;0.60;;;0.60;;
5620;SDS011;2832;50.864;12.186;2023-06-22T09:42:22;0.60;;;0.60;;
5620;SDS011;2832;50.864;12.186;2023-06-22T09:44:59;0.60;;;0.60;;
5620;SDS011;2832;50.864;12.186;2023-06-22T09:50:55;0.60;;;0.60;;
5620;SDS011;2832;50.864;12.186;2023-06-22T09:57:08;0.60;;;0.60;;
5620;SDS011;2832;50.864;12.186;2023-06-22T09:59:42;0.50;;;0.50;;
5620;SDS011;2832;50.864;12.186;2023-06-22T10:02:41;0.60;;;0.60;;
5620;SDS011;2832;50.864;12.186;2023-06-22T10:05:57;0.50;;;0.50;;
5620;SDS011;2832;50.864;12.186;2023-06-22T10:09:08;0.60;;;0.60;;
5620;SDS011;2832;50.864;12.186;2023-06-22T10:12:32;0.60;;;0.60;;
5620;SDS011;2832;50.864;12.186;2023-06-22T10:15:23;0.60;;;0.60;;
5620;SDS011;2832;50.864;12.186;2023-06-22T10:18:30;0.60;;;0.60;;
5620;SDS011;2832;50.864;12.186;2023-06-22T10:21:27;0.60;;;0.60;;
5620;SDS011;2832;50.864;12.186;2023-06-22T10:24:17;0.53;;;0.53;;
5620;SDS011;2832;50.864;12.186;2023-06-22T10:26:53;0.50;;;0.50;;
5620;SDS011;2832;50.864;12.186;2023-06-22T10:29:24;0.60;;;0.60;;
5620;SDS011;2832;50.864;12.186;2023-06-22T10:32:08;0.50;;;0.50;;
5620;SDS011;2832;50.864;12.186;2023-06-22T10:38:25;0.50;;;0.50;;
5620;SDS011;2832;50.864;12.186;2023-06-22T10:41:08;0.50;;;0.50;;
5620;SDS011;2832;50.864;12.186;2023-06-22T10:44:02;0.60;;;0.60;;
5620;SDS011;2832;50.864;12.186;2023-06-22T10:46:47;0.50;;;0.50;;
5620;SDS011;2832;50.864;12.186;2023-06-22T10:49:30;0.50;;;0.50;;
5620;SDS011;2832;50.864;12.186;2023-06-22T11:12:36;0.50;;;0.50;;
5620;SDS011;2832;50.864;12.186;2023-06-22T11:15:16;0.60;;;0.60;;
5620;SDS011;2832;50.864;12.186;2023-06-22T11:21:36;0.60;;;0.60;;
5620;SDS011;2832;50.864;12.186;2023-06-22T11:24:16;0.60;;;0.60;;
5620;SDS011;2832;50.864;12.186;2023-06-22T11:26:54;0.50;;;0.50;;
5620;SDS011;2832;50.864;12.186;2023-06-22T11:29:27;0.70;;;0.70;;
5620;SDS011;2832;50.864;12.186;2023-06-22T11:35:51;0.50;;;0.50;;
5620;SDS011;2832;50.864;12.186;2023-06-22T11:39:06;0.60;;;0.60;;
5620;SDS011;2832;50.864;12.186;2023-06-22T11:42:30;0.50;;;0.50;;
5620;SDS011;2832;50.864;12.186;2023-06-22T11:52:18;0.50;;;0.50;;
5620;SDS011;2832;50.864;12.186;2023-06-22T11:58:33;0.40;;;0.40;;
5620;SDS011;2832;50.864;12.186;2023-06-22T12:07:55;0.50;;;0.50;;
5620;SDS011;2832;50.864;12.186;2023-06-22T12:16:56;0.50;;;0.50;;
5620;SDS011;2832;50.864;12.186;2023-06-22T12:23:28;0.50;;;0.50;;
5620;SDS011;2832;50.864;12.186;2023-06-22T12:26:17;0.50;;;0.50;;
5620;SDS011;2832;50.864;12.186;2023-06-22T12:29:21;0.50;;;0.50;;
5620;SDS011;2832;50.864;12.186;2023-06-22T12:32:12;0.50;;;0.50;;
5620;SDS011;2832;50.864;12.186;2023-06-22T12:35:08;0.50;;;0.50;;
5620;SDS011;2832;50.864;12.186;2023-06-22T12:51:19;0.47;;;0.47;;
5620;SDS011;2832;50.864;12.186;2023-06-22T12:56:43;0.40;;;0.40;;
5620;SDS011;2832;50.864;12.186;2023-06-22T12:59:34;0.50;;;0.50;;
5620;SDS011;2832;50.864;12.186;2023-06-22T13:03:02;0.50;;;0.50;;
5620;SDS011;2832;50.864;12.186;2023-06-22T13:06:19;0.50;;;0.50;;
5620;SDS011;2832;50.864;12.186;2023-06-22T13:09:09;0.50;;;0.50;;
5620;SDS011;2832;50.864;12.186;2023-06-22T13:12:01;0.50;;;0.50;;
5620;SDS011;2832;50.864;12.186;2023-06-22T13:15:20;0.40;;;0.40;;
5620;SDS011;2832;50.864;12.186;2023-06-22T13:18:57;0.40;;;0.40;;
5620;SDS011;2832;50.864;12.186;2023-06-22T13:22:38;0.40;;;0.40;;
5620;SDS011;2832;50.864;12.186;2023-06-22T13:25:45;0.43;;;0.43;;
5620;SDS011;2832;50.864;12.186;2023-06-22T13:28:22;0.40;;;0.40;;
5620;SDS011;2832;50.864;12.186;2023-06-22T13:35:41;0.40;;;0.40;;
5620;SDS011;2832;50.864;12.186;2023-06-22T13:45:58;0.50;;;0.50;;
5620;SDS011;2832;50.864;12.186;2023-06-22T13:54:37;0.50;;;0.50;;
5620;SDS011;2832;50.864;12.186;2023-06-22T13:57:07;0.40;;;0.40;;
5620;SDS011;2832;50.864;12.186;2023-06-22T13:59:46;0.50;;;0.50;;
5620;SDS011;2832;50.864;12.186;2023-06-22T14:02:26;0.50;;;0.50;;
5620;SDS011;2832;50.864;12.186;2023-06-22T14:05:12;0.50;;;0.50;;
5620;SDS011;2832;50.864;12.186;2023-06-22T14:07:51;0.45;;;0.45;;
5620;SDS011;2832;50.864;12.186;2023-06-22T14:21:46;0.40;;;0.40;;
5620;SDS011;2832;50.864;12.186;2023-06-22T14:24:17;0.40;;;0.40;;
5620;SDS011;2832;50.864;12.186;2023-06-22T14:26:50;0.50;;;0.50;;
5620;SDS011;2832;50.864;12.186;2023-06-22T14:29:22;0.50;;;0.50;;
5620;SDS011;2832;50.864;12.186;2023-06-22T14:35:11;0.50;;;0.50;;
5620;SDS011;2832;50.864;12.186;2023-06-22T14:46:21;0.45;;;0.45;;
5620;SDS011;2832;50.864;12.186;2023-06-22T14:52:04;0.40;;;0.40;;
5620;SDS011;2832;50.864;12.186;2023-06-22T14:55:06;0.40;;;0.40;;
5620;SDS011;2832;50.864;12.186;2023-06-22T14:58:03;0.40;;;0.40;;
5620;SDS011;2832;50.864;12.186;2023-06-22T15:00:38;0.50;;;0.50;;
5620;SDS011;2832;50.864;12.186;2023-06-22T15:03:11;0.40;;;0.40;;
5620;SDS011;2832;50.864;12.186;2023-06-22T15:13:02;0.40;;;0.40;;
5620;SDS011;2832;50.864;12.186;2023-06-22T15:16:00;0.47;;;0.47;;
5620;SDS011;2832;50.864;12.186;2023-06-22T15:18:40;0.47;;;0.47;;
5620;SDS011;2832;50.864;12.186;2023-06-22T15:21:32;0.50;;;0.50;;
5620;SDS011;2832;50.864;12.186;2023-06-22T15:24:28;0.40;;;0.40;;
5620;SDS011;2832;50.864;12.186;2023-06-22T15:27:07;0.40;;;0.40;;
5620;SDS011;2832;50.864;12.186;2023-06-22T15:29:57;0.40;;;0.40;;
5620;SDS011;2832;50.864;12.186;2023-06-22T15:32:46;0.40;;;0.40;;
5620;SDS011;2832;50.864;12.186;2023-06-22T15:35:35;0.43;;;0.43;;
5620;SDS011;2832;50.864;12.186;2023-06-22T15:38:27;0.40;;;0.40;;
5620;SDS011;2832;50.864;12.186;2023-06-22T15:41:53;0.40;;;0.40;;
5620;SDS011;2832;50.864;12.186;2023-06-22T15:44:33;0.40;;;0.40;;
5620;SDS011;2832;50.864;12.186;2023-06-22T15:47:28;0.50;;;0.50;;
5620;SDS011;2832;50.864;12.186;2023-06-22T15:50:04;0.50;;;0.50;;
5620;SDS011;2832;50.864;12.186;2023-06-22T16:02:11;0.50;;;0.50;;
5620;SDS011;2832;50.864;12.186;2023-06-22T16:07:59;0.40;;;0.40;;
5620;SDS011;2832;50.864;12.186;2023-06-22T16:10:45;0.40;;;0.40;;
5620;SDS011;2832;50.864;12.186;2023-06-22T16:13:15;0.50;;;0.50;;
5620;SDS011;2832;50.864;12.186;2023-06-22T16:20:00;0.40;;;0.40;;
5620;SDS011;2832;50.864;12.186;2023-06-22T16:22:50;0.40;;;0.40;;
5620;SDS011;2832;50.864;12.186;2023-06-22T16:25:51;0.50;;;0.50;;
5620;SDS011;2832;50.864;12.186;2023-06-22T16:28:22;0.45;;;0.45;;
5620;SDS011;2832;50.864;12.186;2023-06-22T16:30:58;0.40;;;0.40;;
5620;SDS011;2832;50.864;12.186;2023-06-22T16:33:30;0.40;;;0.40;;
5620;SDS011;2832;50.864;12.186;2023-06-22T16:35:59;0.50;;;0.50;;
5620;SDS011;2832;50.864;12.186;2023-06-22T16:38:47;0.45;;;0.45;;
5620;SDS011;2832;50.864;12.186;2023-06-22T16:41:18;0.40;;;0.40;;
5620;SDS011;2832;50.864;12.186;2023-06-22T16:43:52;0.40;;;0.40;;
5620;SDS011;2832;50.864;12.186;2023-06-22T16:46:24;0.50;;;0.50;;
5620;SDS011;2832;50.864;12.186;2023-06-22T16:49:01;0.50;;;0.50;;
5620;SDS011;2832;50.864;12.186;2023-06-22T16:51:33;0.50;;;0.50;;
5620;SDS011;2832;50.864;12.186;2023-06-22T16:54:12;0.43;;;0.43;;
5620;SDS011;2832;50.864;12.186;2023-06-22T16:57:18;0.50;;;0.50;;
5620;SDS011;2832;50.864;12.186;2023-06-22T16:59:50;0.40;;;0.40;;
5620;SDS011;2832;50.864;12.186;2023-06-22T17:02:20;0.40;;;0.40;;
5620;SDS011;2832;50.864;12.186;2023-06-22T17:04:54;0.50;;;0.50;;
5620;SDS011;2832;50.864;12.186;2023-06-22T17:07:25;0.40;;;0.40;;
5620;SDS011;2832;50.864;12.186;2023-06-22T17:10:01;0.50;;;0.50;;
5620;SDS011;2832;50.864;12.186;2023-06-22T17:12:48;0.50;;;0.50;;
5620;SDS011;2832;50.864;12.186;2023-06-22T17:15:22;0.50;;;0.50;;
5620;SDS011;2832;50.864;12.186;2023-06-22T17:17:52;0.40;;;0.40;;
5620;SDS011;2832;50.864;12.186;2023-06-22T17:20:25;0.50;;;0.50;;
5620;SDS011;2832;50.864;12.186;2023-06-22T17:23:07;0.50;;;0.50;;
5620;SDS011;2832;50.864;12.186;2023-06-22T17:25:39;0.50;;;0.50;;
5620;SDS011;2832;50.864;12.186;2023-06-22T17:28:13;0.50;;;0.50;;
5620;SDS011;2832;50.864;12.186;2023-06-22T17:30:45;0.50;;;0.50;;
5620;SDS011;2832;50.864;12.186;2023-06-22T17:33:14;0.50;;;0.50;;
5620;SDS011;2832;50.864;12.186;2023-06-22T17:35:49;0.50;;;0.50;;
5620;SDS011;2832;50.864;12.186;2023-06-22T17:38:38;0.40;;;0.40;;
5620;SDS011;2832;50.864;12.186;2023-06-22T17:41:08;0.50;;;0.50;;
5620;SDS011;2832;50.864;12.186;2023-06-22T17:43:58;0.40;;;0.40;;
5620;SDS011;2832;50.864;12.186;2023-06-22T17:46:36;0.40;;;0.40;;
5620;SDS011;2832;50.864;12.186;2023-06-22T17:49:09;0.40;;;0.40;;
5620;SDS011;2832;50.864;12.186;2023-06-22T17:51:41;0.40;;;0.40;;
5620;SDS011;2832;50.864;12.186;2023-06-22T17:54:12;0.40;;;0.40;;
5620;SDS011;2832;50.864;12.186;2023-06-22T17:56:49;0.43;;;0.43;;
5620;SDS011;2832;50.864;12.186;2023-06-22T17:59:31;0.50;;;0.50;;
5620;SDS011;2832;50.864;12.186;2023-06-22T18:02:05;0.50;;;0.50;;
5620;SDS011;2832;50.864;12.186;2023-06-22T18:04:49;0.50;;;0.50;;
5620;SDS011;2832;50.864;12.186;2023-06-22T18:07:24;0.40;;;0.40;;
5620;SDS011;2832;50.864;12.186;2023-06-22T18:10:00;0.47;;;0.47;;
5620;SDS011;2832;50.864;12.186;2023-06-22T18:12:43;0.50;;;0.50;;
5620;SDS011;2832;50.864;12.186;2023-06-22T18:15:19;0.50;;;0.50;;
5620;SDS011;2832;50.864;12.186;2023-06-22T18:17:51;0.50;;;0.50;;
5620;SDS011;2832;50.864;12.186;2023-06-22T18:20:23;0.50;;;0.50;;
5620;SDS011;2832;50.864;12.186;2023-06-22T18:23:09;0.40;;;0.40;;
5620;SDS011;2832;50.864;12.186;2023-06-22T18:26:25;0.50;;;0.50;;
5620;SDS011;2832;50.864;12.186;2023-06-22T18:28:58;0.50;;;0.50;;
5620;SDS011;2832;50.864;12.186;2023-06-22T18:31:39;0.50;;;0.50;;
5620;SDS011;2832;50.864;12.186;2023-06-22T18:34:08;0.50;;;0.50;;
5620;SDS011;2832;50.864;12.186;2023-06-22T18:36:41;0.50;;;0.50;;
5620;SDS011;2832;50.864;12.186;2023-06-22T18:42:44;0.50;;;0.50;;
5620;SDS011;2832;50.864;12.186;2023-06-22T18:45:24;0.40;;;0.40;;
5620;SDS011;2832;50.864;12.186;2023-06-22T18:48:27;0.40;;;0.40;;
5620;SDS011;2832;50.864;12.186;2023-06-22T18:51:11;0.50;;;0.50;;
5620;SDS011;2832;50.864;12.186;2023-06-22T18:54:16;0.50;;;0.50;;
5620;SDS011;2832;50.864;12.186;2023-06-22T18:56:54;0.50;;;0.50;;
5620;SDS011;2832;50.864;12.186;2023-06-22T18:59:47;0.47;;;0.47;;
5620;SDS011;2832;50.864;12.186;2023-06-22T19:11:40;0.50;;;0.50;;
5620;SDS011;2832;50.864;12.186;2023-06-22T19:14:24;0.50;;;0.50;;
5620;SDS011;2832;50.864;12.186;2023-06-22T19:17:00;0.50;;;0.50;;
5620;SDS011;2832;50.864;12.186;2023-06-22T19:19:32;0.50;;;0.50;;
5620;SDS011;2832;50.864;12.186;2023-06-22T19:25:29;0.50;;;0.50;;
5620;SDS011;2832;50.864;12.186;2023-06-22T19:28:04;0.50;;;0.50;;
5620;SDS011;2832;50.864;12.186;2023-06-22T19:30:55;0.50;;;0.50;;
5620;SDS011;2832;50.864;12.186;2023-06-22T19:33:43;0.50;;;0.50;;
5620;SDS011;2832;50.864;12.186;2023-06-22T19:36:33;0.50;;;0.50;;
5620;SDS011;2832;50.864;12.186;2023-06-22T19:39:04;0.50;;;0.50;;
5620;SDS011;2832;50.864;12.186;2023-06-22T19:41:39;0.50;;;0.50;;
5620;SDS011;2832;50.864;12.186;2023-06-22T19:44:09;0.50;;;0.50;;
5620;SDS011;2832;50.864;12.186;2023-06-22T19:46:43;0.50;;;0.50;;
5620;SDS011;2832;50.864;12.186;2023-06-22T19:49:15;0.50;;;0.50;;
5620;SDS011;2832;50.864;12.186;2023-06-22T19:51:48;0.50;;;0.50;;
5620;SDS011;2832;50.864;12.186;2023-06-22T19:54:22;0.40;;;0.40;;
5620;SDS011;2832;50.864;12.186;2023-06-22T19:57:08;0.50;;;0.50;;
5620;SDS011;2832;50.864;12.186;2023-06-22T19:59:41;0.40;;;0.40;;
5620;SDS011;2832;50.864;12.186;2023-06-22T20:02:18;0.45;;;0.45;;
5620;SDS011;2832;50.864;12.186;2023-06-22T20:04:52;0.50;;;0.50;;
5620;SDS011;2832;50.864;12.186;2023-06-22T20:07:20;0.50;;;0.50;;
5620;SDS011;2832;50.864;12.186;2023-06-22T20:10:08;0.45;;;0.45;;
5620;SDS011;2832;50.864;12.186;2023-06-22T20:12:40;0.40;;;0.40;;
5620;SDS011;2832;50.864;12.186;2023-06-22T20:15:24;0.40;;;0.40;;
5620;SDS011;2832;50.864;12.186;2023-06-22T20:17:55;0.40;;;0.40;;
5620;SDS011;2832;50.864;12.186;2023-06-22T20:20:27;0.50;;;0.50;;
5620;SDS011;2832;50.864;12.186;2023-06-22T20:23:20;0.40;;;0.40;;
5620;SDS011;2832;50.864;12.186;2023-06-22T20:25:49;0.40;;;0.40;;
5620;SDS011;2832;50.864;12.186;2023-06-22T20:28:21;0.45;;;0.45;;
5620;SDS011;2832;50.864;12.186;2023-06-22T20:33:38;0.40;;;0.40;;
5620;SDS011;2832;50.864;12.186;2023-06-22T20:36:12;0.50;;;0.50;;
5620;SDS011;2832;50.864;12.186;2023-06-22T20:38:43;0.40;;;0.40;;
5620;SDS011;2832;50.864;12.186;2023-06-22T20:41:11;0.50;;;0.50;;
5620;SDS011;2832;50.864;12.186;2023-06-22T20:43:42;0.40;;;0.40;;
5620;SDS011;2832;50.864;12.186;2023-06-22T20:46:13;0.43;;;0.43;;
5620;SDS011;2832;50.864;12.186;2023-06-22T20:48:49;0.60;;;0.60;;
5620;SDS011;2832;50.864;12.186;2023-06-22T20:51:17;0.50;;;0.50;;
5620;SDS011;2832;50.864;12.186;2023-06-22T20:53:45;0.40;;;0.40;;
5620;SDS011;2832;50.864;12.186;2023-06-22T20:56:13;0.50;;;0.50;;
5620;SDS011;2832;50.864;12.186;2023-06-22T20:58:46;0.40;;;0.40;;
5620;SDS011;2832;50.864;12.186;2023-06-22T21:01:20;0.40;;;0.40;;
5620;SDS011;2832;50.864;12.186;2023-06-22T21:03:49;0.50;;;0.50;;
5620;SDS011;2832;50.864;12.186;2023-06-22T21:06:43;0.50;;;0.50;;
5620;SDS011;2832;50.864;12.186;2023-06-22T21:09:17;0.40;;;0.40;;
5620;SDS011;2832;50.864;12.186;2023-06-22T21:11:51;0.40;;;0.40;;
5620;SDS011;2832;50.864;12.186;2023-06-22T21:14:32;0.40;;;0.40;;
5620;SDS011;2832;50.864;12.186;2023-06-22T21:17:04;0.50;;;0.50;;
5620;SDS011;2832;50.864;12.186;2023-06-22T21:19:35;0.40;;;0.40;;
5620;SDS011;2832;50.864;12.186;2023-06-22T21:22:05;0.47;;;0.47;;
5620;SDS011;2832;50.864;12.186;2023-06-22T21:24:35;0.50;;;0.50;;
5620;SDS011;2832;50.864;12.186;2023-06-22T21:27:03;0.40;;;0.40;;
5620;SDS011;2832;50.864;12.186;2023-06-22T21:29:33;0.50;;;0.50;;
5620;SDS011;2832;50.864;12.186;2023-06-22T21:32:03;0.50;;;0.50;;
5620;SDS011;2832;50.864;12.186;2023-06-22T21:34:31;0.50;;;0.50;;
5620;SDS011;2832;50.864;12.186;2023-06-22T21:37:00;0.50;;;0.50;;
5620;SDS011;2832;50.864;12.186;2023-06-22T21:39:28;0.50;;;0.50;;
5620;SDS011;2832;50.864;12.186;2023-06-22T21:42:01;0.50;;;0.50;;
5620;SDS011;2832;50.864;12.186;2023-06-22T21:44:34;0.50;;;0.50;;
5620;SDS011;2832;50.864;12.186;2023-06-22T21:47:04;0.40;;;0.40;;
5620;SDS011;2832;50.864;12.186;2023-06-22T21:49:33;0.50;;;0.50;;
5620;SDS011;2832;50.864;12.186;2023-06-22T21:52:05;0.45;;;0.45;;
5620;SDS011;2832;50.864;12.186;2023-06-22T21:54:34;0.43;;;0.43;;
5620;SDS011;2832;50.864;12.186;2023-06-22T21:57:08;0.50;;;0.50;;
5620;SDS011;2832;50.864;12.186;2023-06-22T21:59:44;0.50;;;0.50;;
5620;SDS011;2832;50.864;12.186;2023-06-22T22:02:19;0.50;;;0.50;;
5620;SDS011;2832;50.864;12.186;2023-06-22T22:04:54;0.50;;;0.50;;
5620;SDS011;2832;50.864;12.186;2023-06-22T22:07:22;0.50;;;0.50;;
5620;SDS011;2832;50.864;12.186;2023-06-22T22:09:56;0.40;;;0.40;;
5620;SDS011;2832;50.864;12.186;2023-06-22T22:12:23;0.52;;;0.52;;
5620;SDS011;2832;50.864;12.186;2023-06-22T22:15:00;0.50;;;0.50;;
5620;SDS011;2832;50.864;12.186;2023-06-22T22:17:29;0.60;;;0.60;;
5620;SDS011;2832;50.864;12.186;2023-06-22T22:20:14;0.50;;;0.50;;
5620;SDS011;2832;50.864;12.186;2023-06-22T22:22:56;0.50;;;0.50;;
5620;SDS011;2832;50.864;12.186;2023-06-22T22:25:26;0.50;;;0.50;;
5620;SDS011;2832;50.864;12.186;2023-06-22T22:27:59;0.50;;;0.50;;